KILM

Wilmington International Airport

Wilmington, North Carolina, USA
METAR KILM 170153Z AUTO 00000KT 10SM CLR 03/00 A3029 RMK AO2 SLP256 T00330000
Observed Flight Rules
Dec-17 @ 01:53 UTC (23 minutes ago) Visual Flight Rules
Wind Visibility Clouds
Calm 10 miles
  • Clear skies
Temperatures Readings
Current 3°C / 37°F
Dewpoint 0°C / 32°F
Humidity 81%
Altimeter 30.29" Hg
Pressure 1025.6 hPa
Elevation 9
METAR KILM 170153Z AUTO 00000KT 10SM CLR 03/00 A3029 RMK AO2 SLP256 T00330000
Observed Flight Rules
Dec-17 @ 01:53 UTC
(23 minutes ago)
VFR
Wind Visibility
Calm 10 miles
Clouds
  • Clear skies
Temperature Dewpoint
3°C / 37°F 0°C / 32°F
Humidity Altimeter Pressure
81% 30.29" Hg 1025.6 hPa